EYSA/SQQ METAR and TAF weather

Enter ICAO airport designator
Station Type Date Time Source
EYSA METAR 2019/06/18 17:20 UTC NOAA

EYSA 181720Z 03003KT 350V050 CAVOK 25/12 Q1019 BLU NOSIG


Station Type Date Time Source
EYSA Decoded METAR 2019/06/18 17:20 UTC NOAA

Siauliai Intl./Mil., Lithuania (EYSA) 55-53-38N 023-23-42E
Jun 18, 2019 - 01:20 PM EDT / 2019.06.18 1720 UTC
Wind: from the NNE (030 degrees) at 3 MPH (3 KT) (direction variable):0
Visibility: greater than 7 mile(s):0
Temperature: 77 F (25 C)
Dew Point: 53 F (12 C)
Relative Humidity: 44%
Pressure (altimeter): 30.09 in. Hg (1019 hPa)
ob: EYSA 181720Z 03003KT 350V050 CAVOK 25/12 Q1019 BLU NOSIG
cycle: 17

Station Type Date Time Source
EYSA TAF 2019/01/10 12:09 UTC NOAA

TAF TAF EYSA 101105Z 1012/1024 VRB04KT 5000 BR NSC
TEMPO 1012/1019 SCT010
BECMG 1019/1021 BKN005

Example: see airport list